Time;durP1;ratioP1;P1;durP2;ratioP2;P2;SDS_P1;SDS_P2;PMS_P1;PMS_P2;Temp;Humidity;BMP_temperature;BMP_pressure;BME280_temperature;BME280_humidity;BME280_pressure;Samples;Min_cycle;Max_cycle;Signal;HPM_P1;HPM_P2
2021/04/03 12:58:24;;;;;;;2.83;1.08;;;;;;;;;;5124137;27;20322;-74
2021/04/03 13:00:50;;;;;;;4.03;1.10;;;;;;;;;;5125499;28;20027;-74
2021/04/03 13:03:16;;;;;;;4.90;1.25;;;;;;;;;;5109155;28;20567;-74
2021/04/03 13:05:42;;;;;;;3.67;1.25;;;;;;;;;;5104231;28;20108;-74
2021/04/03 13:08:08;;;;;;;4.38;1.52;;;;;;;;;;5105766;28;20549;-74
2021/04/03 13:10:35;;;;;;;4.75;1.42;;;;;;;;;;5103076;28;20036;-75
2021/04/03 13:13:01;;;;;;;4.18;1.30;;;;;;;;;;5102158;28;20089;-75
2021/04/03 13:15:27;;;;;;;5.35;1.42;;;;;;;;;;5104940;28;20028;-74
2021/04/03 13:17:54;;;;;;;5.35;1.20;;;;;;;;;;5104098;28;20035;-74
2021/04/03 13:20:20;;;;;;;5.18;1.42;;;;;;;;;;5105091;28;20030;-74
2021/04/03 13:22:46;;;;;;;4.13;1.10;;;;;;;;;;5121571;28;20054;-74
2021/04/03 13:25:12;;;;;;;3.75;0.93;;;;;;;;;;5124162;28;20059;-75
2021/04/03 13:27:38;;;;;;;3.65;1.00;;;;;;;;;;5124696;28;20054;-75
2021/04/03 13:30:08;;;;;;;3.55;1.20;;;;;;;;;;5124142;28;20027;-73
2021/04/03 13:32:35;;;;;;;3.30;1.10;;;;;;;;;;5123595;28;20051;-73
2021/04/03 13:35:01;;;;;;;5.75;1.50;;;;;;;;;;5124846;28;20038;-74
2021/04/03 13:37:27;;;;;;;3.60;1.25;;;;;;;;;;5122075;28;20020;-74
2021/04/03 13:39:53;;;;;;;4.38;1.25;;;18.70;48.70;;;;;;5124042;28;20062;-75
2021/04/03 13:42:18;;;;;;;4.35;1.50;;;17.30;48.70;;;;;;5124113;27;20633;-74
2021/04/03 13:44:44;;;;;;;5.13;1.30;;;17.00;49.70;;;;;;5122206;28;20031;-74
2021/04/03 13:47:10;;;;;;;5.40;1.25;;;16.40;50.90;;;;;;5122702;28;20062;-75
2021/04/03 13:49:36;;;;;;;5.18;1.55;;;16.30;50.80;;;;;;5103603;28;20131;-74
2021/04/03 13:52:01;;;;;;;4.72;1.10;;;16.30;50.50;;;;;;5102877;28;20024;-75
2021/04/03 13:54:27;;;;;;;4.25;1.42;;;16.50;51.10;;;;;;5110995;28;20031;-74
2021/04/03 13:56:53;;;;;;;3.22;0.88;;;17.60;50.00;;;;;;5123364;27;20051;-72
2021/04/03 13:59:18;;;;;;;5.38;1.13;;;19.50;46.90;;;;;;5124345;27;20019;-75
2021/04/03 14:01:44;;;;;;;4.35;1.30;;;20.10;46.00;;;;;;5123597;27;20027;-74
2021/04/03 14:04:10;;;;;;;3.13;1.35;;;21.30;43.80;;;;;;5123648;27;20110;-75
2021/04/03 14:06:35;;;;;;;2.85;1.02;;;23.20;41.10;;;;;;5113527;27;20123;-74
2021/04/03 14:09:02;;;;;;;3.33;1.17;;;22.50;40.40;;;;;;5094250;28;20044;-74
2021/04/03 14:11:27;;;;;;;4.18;1.33;;;20.90;42.20;;;;;;5106280;28;20059;-74
2021/04/03 14:13:53;;;;;;;4.47;1.25;;;19.00;44.70;;;;;;5106490;28;20311;-73
2021/04/03 14:16:19;;;;;;;3.67;1.27;;;18.20;46.70;;;;;;5114292;28;20051;-73
2021/04/03 14:18:44;;;;;;;2.97;1.00;;;17.10;49.10;;;;;;5114134;28;20023;-74
2021/04/03 14:21:10;;;;;;;4.32;1.20;;;16.40;49.90;;;;;;5110454;28;20091;-75
2021/04/03 14:23:36;;;;;;;4.53;1.45;;;16.60;50.10;;;;;;5092936;28;20108;-74
2021/04/03 14:26:05;;;;;;;7.80;1.38;;;16.40;49.70;;;;;;5094028;28;20104;-74
2021/04/03 14:28:31;;;;;;;3.30;1.23;;;15.90;50.20;;;;;;5084122;28;20047;-75
2021/04/03 14:30:57;;;;;;;3.08;1.00;;;17.30;49.10;;;;;;5114311;28;20050;-75
2021/04/03 14:33:23;;;;;;;4.65;1.27;;;19.50;46.00;;;;;;5108886;28;20020;-74
2021/04/03 14:35:49;;;;;;;2.05;1.02;;;20.60;42.90;;;;;;5093687;28;20020;-74
2021/04/03 14:38:14;;;;;;;2.92;1.00;;;20.80;42.00;;;;;;5093594;28;20108;-74
2021/04/03 14:40:40;;;;;;;2.90;1.10;;;22.10;41.00;;;;;;5092538;28;20500;-74
2021/04/03 14:43:06;;;;;;;5.95;0.98;;;22.00;39.80;;;;;;5104244;28;20039;-74
2021/04/03 14:45:31;;;;;;;2.42;1.00;;;21.30;40.30;;;;;;5093850;28;20070;-74
2021/04/03 14:47:57;;;;;;;7.55;1.17;;;19.70;41.50;;;;;;5093623;28;20035;-74
2021/04/03 14:50:23;;;;;;;5.68;1.17;;;19.20;43.20;;;;;;5093519;28;20036;-74
2021/04/03 14:52:49;;;;;;;2.47;0.90;;;18.40;44.70;;;;;;5092295;28;20501;-74
2021/04/03 14:55:15;;;;;;;3.22;1.10;;;17.70;45.60;;;;;;5091590;28;20063;-73
2021/04/03 14:57:40;;;;;;;1.83;0.70;;;17.30;46.20;;;;;;5110388;28;20059;-74
2021/04/03 15:00:11;;;;;;;4.88;1.13;;;16.70;47.10;;;;;;5113796;28;20097;-73
2021/04/03 15:02:37;;;;;;;3.20;1.20;;;17.20;46.70;;;;;;5113054;28;20044;-73
2021/04/03 15:05:04;;;;;;;6.07;1.08;;;17.90;44.80;;;;;;5093296;28;20032;-73
2021/04/03 15:07:30;;;;;;;2.65;1.00;;;17.40;45.90;;;;;;5092533;28;20449;-74
2021/04/03 15:09:55;;;;;;;2.90;0.85;;;16.80;46.90;;;;;;5092733;28;20031;-74
2021/04/03 15:12:21;;;;;;;5.38;1.00;;;16.40;48.20;;;;;;5093298;28;20520;-74
2021/04/03 15:14:47;;;;;;;3.95;1.25;;;16.20;48.90;;;;;;5092742;28;20443;-74
2021/04/03 15:17:12;;;;;;;3.35;1.80;;;16.30;48.10;;;;;;5093078;28;20349;-74
2021/04/03 15:19:38;;;;;;;3.30;1.13;;;17.20;47.50;;;;;;5090890;28;20024;-74
2021/04/03 15:22:04;;;;;;;2.58;1.13;;;19.30;45.40;;;;;;5091783;28;20039;-74
2021/04/03 15:24:30;;;;;;;2.08;0.90;;;20.50;42.00;;;;;;5092483;28;20035;-74
2021/04/03 15:26:55;;;;;;;3.92;1.20;;;20.40;42.20;;;;;;5087164;28;20032;-74
2021/04/03 15:29:21;;;;;;;1.95;1.00;;;20.00;41.70;;;;;;5100578;28;20035;-74
2021/04/03 15:31:47;;;;;;;1.85;0.70;;;20.10;41.30;;;;;;5110452;28;20035;-74
2021/04/03 15:34:12;;;;;;;1.83;0.90;;;19.30;41.80;;;;;;5092279;28;20464;-74
2021/04/03 15:36:38;;;;;;;3.15;1.00;;;18.30;43.60;;;;;;5091675;28;20149;-74
2021/04/03 15:39:04;;;;;;;5.25;1.65;;;18.00;44.30;;;;;;5090479;28;20035;-74
2021/04/03 15:41:29;;;;;;;2.47;1.20;;;17.60;44.50;;;;;;5089868;28;20031;-74
2021/04/03 15:43:55;;;;;;;4.45;1.05;;;17.30;46.20;;;;;;5090118;28;20031;-74
2021/04/03 15:46:21;;;;;;;3.10;1.00;;;17.10;46.00;;;;;;5104089;28;20055;-74
2021/04/03 15:48:46;;;;;;;3.10;1.08;;;16.60;46.50;;;;;;5111978;28;20051;-74
2021/04/03 15:51:12;;;;;;;3.28;1.00;;;16.40;47.20;;;;;;5110467;28;20059;-74
2021/04/03 15:53:38;;;;;;;5.10;0.90;;;16.40;46.80;;;;;;5104367;28;20036;-74
2021/04/03 15:56:04;;;;;;;3.38;0.82;;;16.20;47.00;;;;;;5090095;28;20115;-74
2021/04/03 15:58:29;;;;;;;3.53;0.80;;;15.90;47.90;;;;;;5091524;28;20028;-74
2021/04/03 16:00:55;;;;;;;4.65;1.25;;;15.70;48.70;;;;;;5088047;22;20045;-76
2021/04/03 16:03:21;;;;;;;1.95;0.65;;;15.50;48.60;;;;;;5066492;28;20032;-76
2021/04/03 16:05:47;;;;;;;2.40;0.75;;;15.50;48.80;;;;;;5071500;28;20025;-76
2021/04/03 16:08:13;;;;;;;3.60;1.08;;;15.40;48.90;;;;;;5071503;28;20494;-77
2021/04/03 16:10:41;;;;;;;4.00;1.02;;;15.30;49.20;;;;;;5071761;28;20442;-76
2021/04/03 16:13:06;;;;;;;3.53;0.80;;;15.10;49.70;;;;;;5069452;28;20054;-76
2021/04/03 16:15:32;;;;;;;2.83;0.95;;;14.90;50.40;;;;;;5070271;28;20028;-76
2021/04/03 16:18:00;;;;;;;2.95;0.63;;;14.60;50.80;;;;;;5071465;28;20028;-76
2021/04/03 16:20:26;;;;;;;3.65;1.20;;;14.60;51.40;;;;;;5068069;28;20021;-75
2021/04/03 16:22:51;;;;;;;4.25;1.20;;;14.40;52.10;;;;;;5064873;28;20078;-75
2021/04/03 16:25:17;;;;;;;2.47;0.90;;;14.00;52.90;;;;;;5067016;28;20090;-75
2021/04/03 16:27:43;;;;;;;4.68;0.90;;;13.70;53.10;;;;;;5066212;28;20089;-75
2021/04/03 16:30:10;;;;;;;4.03;1.20;;;13.70;53.50;;;;;;5065692;28;20028;-76
2021/04/03 16:32:36;;;;;;;3.80;1.20;;;13.70;53.40;;;;;;5065165;28;20033;-76
2021/04/03 16:35:01;;;;;;;4.97;1.20;;;13.90;54.10;;;;;;5045401;28;20029;-76
2021/04/03 16:37:27;;;;;;;6.55;1.63;;;13.60;53.80;;;;;;5062000;28;20655;-75
2021/04/03 16:39:53;;;;;;;7.40;1.20;;;13.60;53.70;;;;;;5047677;28;20488;-76
2021/04/03 16:42:20;;;;;;;4.13;1.08;;;13.50;53.30;;;;;;5064757;28;20055;-79
2021/04/03 16:44:45;;;;;;;3.47;0.98;;;13.40;53.30;;;;;;5067417;28;20104;-76
2021/04/03 16:47:11;;;;;;;3.70;1.13;;;13.60;53.70;;;;;;5065622;28;20503;-76
2021/04/03 16:49:37;;;;;;;4.55;1.13;;;13.50;53.70;;;;;;5066604;28;20067;-77
2021/04/03 16:52:02;;;;;;;5.40;1.50;;;13.60;53.30;;;;;;5066707;28;20028;-77
2021/04/03 16:54:28;;;;;;;4.03;0.88;;;13.60;52.30;;;;;;5065440;28;20040;-77
2021/04/03 16:56:55;;;;;;;5.47;1.25;;;13.60;52.80;;;;;;5066949;28;20447;-75
2021/04/03 16:59:26;;;;;;;4.20;0.98;;;13.60;52.60;;;;;;5066439;28;20021;-76
2021/04/03 17:01:52;;;;;;;4.03;1.20;;;13.50;52.90;;;;;;5066072;28;20039;-76
2021/04/03 17:04:18;;;;;;;5.80;1.38;;;13.50;53.00;;;;;;5065133;28;20496;-76
2021/04/03 17:06:44;;;;;;;4.95;1.13;;;13.40;53.50;;;;;;5067564;28;20028;-76
2021/04/03 17:09:09;;;;;;;4.30;1.23;;;13.70;53.80;;;;;;5067616;28;20085;-77
2021/04/03 17:11:35;;;;;;;4.57;1.48;;;13.40;53.80;;;;;;5061074;28;20044;-75
2021/04/03 17:14:01;;;;;;;3.15;1.13;;;13.40;53.80;;;;;;5066846;28;20035;-77
2021/04/03 17:16:27;;;;;;;5.45;1.40;;;13.20;53.90;;;;;;5066279;28;20403;-76
2021/04/03 17:18:52;;;;;;;7.88;1.88;;;13.00;53.50;;;;;;5067451;28;20474;-76
2021/04/03 17:21:18;;;;;;;5.25;1.35;;;13.00;53.60;;;;;;5070603;28;20052;-76
2021/04/03 17:23:44;;;;;;;3.72;0.82;;;13.10;54.10;;;;;;5069037;28;20094;-76
2021/04/03 17:26:09;;;;;;;3.03;0.77;;;13.10;53.30;;;;;;5071067;28;20027;-77
2021/04/03 17:28:37;;;;;;;4.50;0.90;;;12.90;52.60;;;;;;5069967;28;20052;-76
2021/04/03 17:31:03;;;;;;;2.90;0.82;;;13.20;52.10;;;;;;5069615;28;20370;-76
2021/04/03 17:33:30;;;;;;;1.92;0.90;;;13.30;51.00;;;;;;5067281;28;20078;-76
2021/04/03 17:35:57;;;;;;;3.17;1.13;;;13.20;51.10;;;;;;5070794;28;20021;-76
2021/04/03 17:38:23;;;;;;;2.97;0.75;;;13.00;51.80;;;;;;5070701;28;20021;-76
2021/04/03 17:40:50;;;;;;;5.93;0.70;;;13.10;53.00;;;;;;5069582;28;20362;-76
2021/04/03 17:43:17;;;;;;;2.42;0.90;;;12.30;53.20;;;;;;5069887;28;20069;-76
2021/04/03 17:45:42;;;;;;;5.28;1.10;;;12.10;53.90;;;;;;5073232;28;20020;-76
2021/04/03 17:48:08;;;;;;;2.70;1.17;;;12.00;54.60;;;;;;5072149;28;20028;-77
2021/04/03 17:50:34;;;;;;;4.93;1.13;;;11.70;54.90;;;;;;5069975;28;20055;-78
2021/04/03 17:53:00;;;;;;;7.50;1.83;;;12.00;55.50;;;;;;5071732;28;20021;-76
2021/04/03 17:55:25;;;;;;;2.53;1.17;;;11.60;56.20;;;;;;5073185;28;20488;-79
2021/04/03 17:57:51;;;;;;;2.47;1.10;;;11.40;56.80;;;;;;5072015;28;20028;-77
2021/04/03 18:00:17;;;;;;;3.80;1.30;;;11.20;57.70;;;;;;5073405;28;20140;-77
2021/04/03 18:02:43;;;;;;;3.47;1.00;;;10.80;57.00;;;;;;5069489;28;20028;-78
2021/04/03 18:05:09;;;;;;;3.55;1.05;;;11.10;57.80;;;;;;5071709;28;20119;-78
2021/04/03 18:07:35;;;;;;;4.78;1.35;;;10.60;57.70;;;;;;5071613;28;20031;-78
2021/04/03 18:10:01;;;;;;;6.53;1.75;;;10.80;59.10;;;;;;5075985;28;20040;-78
2021/04/03 18:12:27;;;;;;;5.70;1.08;;;10.30;59.70;;;;;;5070861;28;20031;-76
2021/04/03 18:14:52;;;;;;;3.45;1.40;;;10.20;60.30;;;;;;5068748;28;20107;-76
2021/04/03 18:17:18;;;;;;;4.45;1.23;;;;;;;;;;5060310;28;20051;-77
2021/04/03 18:19:46;;;;;;;6.22;1.80;;;;;;;;;;5061356;28;20028;-78
2021/04/03 18:22:12;;;;;;;3.55;1.60;;;;;;;;;;5056305;28;20112;-79
2021/04/03 18:24:42;;;;;;;7.43;2.58;;;;;;;;;;5073003;28;20024;-79
2021/04/03 18:27:08;;;;;;;3.97;2.10;;;;;;;;;;5075171;28;20032;-77
2021/04/03 18:29:34;;;;;;;7.75;2.60;;;;;;;;;;5070355;28;20047;-76
2021/04/03 18:32:00;;;;;;;9.63;3.78;;;;;;;;;;5070650;28;20386;-78
2021/04/03 18:34:26;;;;;;;10.27;5.03;;;;;;;;;;5067637;28;20328;-76
2021/04/03 18:36:52;;;;;;;9.07;4.68;;;;;;;;;;5068876;28;20552;-76
2021/04/03 18:39:18;;;;;;;5.75;2.88;;;;;;;;;;5069377;28;20051;-76
2021/04/03 18:41:45;;;;;;;3.10;1.67;;;;;;;;;;5070435;28;20036;-78
2021/04/03 18:44:11;;;;;;;6.43;1.70;;;;;;;;;;5076650;28;20132;-80
2021/04/03 18:46:37;;;;;;;3.67;1.75;;;;;;;;;;5076448;28;20484;-76
2021/04/03 18:49:03;;;;;;;2.83;1.70;;;;;;;;;;5073198;28;20487;-78
2021/04/03 18:51:29;;;;;;;4.72;1.63;;;;;;;;;;5076845;28;20081;-78
2021/04/03 18:53:55;;;;;;;5.93;1.70;;;;;;;;;;5076462;28;20484;-77
